createdAt,value
2018-05-23T00:00:25.466Z,89.20
2018-05-23T00:02:52.524Z,89.20
2018-05-23T00:05:20.731Z,89.80
2018-05-23T00:07:47.823Z,90.10
2018-05-23T00:10:14.929Z,89.90
2018-05-23T00:12:42.079Z,90.20
2018-05-23T00:15:09.219Z,90.10
2018-05-23T00:17:37.232Z,90.10
2018-05-23T00:20:04.386Z,90.00
2018-05-23T00:22:31.531Z,90.10
2018-05-23T00:24:58.625Z,90.10
2018-05-23T00:27:25.829Z,89.60
2018-05-23T00:29:52.925Z,88.70
2018-05-23T00:32:20.942Z,88.80
2018-05-23T00:34:49.372Z,89.30
2018-05-23T00:37:18.085Z,89.30
2018-05-23T00:39:45.158Z,89.20
2018-05-23T00:42:12.193Z,89.40
2018-05-23T00:44:45.813Z,90.00
2018-05-23T00:47:13.726Z,90.00
2018-05-23T00:49:41.264Z,90.00
2018-05-23T00:52:20.034Z,90.00
2018-05-23T00:54:53.155Z,90.00
2018-05-23T00:57:20.644Z,90.00
2018-05-23T01:00:14.853Z,90.00
2018-05-23T01:02:42.259Z,90.00
2018-05-23T01:05:10.002Z,90.20
2018-05-23T01:07:37.947Z,90.20
2018-05-23T01:10:05.904Z,90.20
2018-05-23T01:12:44.096Z,90.00
2018-05-23T01:15:15.715Z,90.00
2018-05-23T01:20:34.385Z,90.00
2018-05-23T01:23:02.954Z,90.00
2018-05-23T01:25:30.166Z,90.00
2018-05-23T01:27:57.267Z,90.20
2018-05-23T01:30:25.198Z,90.00
2018-05-23T01:32:52.321Z,90.20
2018-05-23T01:35:19.549Z,90.10
2018-05-23T01:37:48.070Z,90.30
2018-05-23T01:40:15.982Z,90.50
2018-05-23T01:42:43.490Z,90.50
2018-05-23T01:45:11.358Z,90.60
2018-05-23T01:47:38.443Z,90.60
2018-05-23T01:50:05.648Z,90.60
2018-05-23T01:52:32.710Z,90.40
2018-05-23T01:55:00.626Z,90.50
2018-05-23T01:57:27.720Z,90.50
2018-05-23T01:59:54.808Z,90.50
2018-05-23T02:02:24.566Z,90.70
2018-05-23T02:04:52.310Z,90.50
2018-05-23T02:07:19.501Z,90.60
2018-05-23T02:09:46.585Z,90.60
2018-05-23T02:12:13.651Z,90.70
2018-05-23T02:14:40.765Z,90.60
2018-05-23T02:17:07.873Z,90.70
2018-05-23T02:19:35.704Z,90.90
2018-05-23T02:22:03.669Z,90.90
2018-05-23T02:24:31.162Z,90.40
2018-05-23T02:26:58.459Z,90.50
2018-05-23T02:29:25.599Z,90.60
2018-05-23T02:31:52.697Z,90.50
2018-05-23T02:34:20.586Z,90.70
2018-05-23T02:36:50.051Z,90.60
2018-05-23T02:39:17.149Z,90.50
2018-05-23T02:41:52.234Z,90.70
2018-05-23T02:44:19.365Z,90.70
2018-05-23T02:46:46.433Z,90.70
2018-05-23T02:49:13.538Z,90.70
2018-05-23T02:51:41.849Z,90.60
2018-05-23T02:54:10.918Z,90.80
2018-05-23T02:56:43.427Z,90.70
2018-05-23T02:59:14.213Z,90.50
2018-05-23T03:01:44.421Z,90.60
2018-05-23T03:09:50.320Z,90.60
2018-05-23T03:20:46.802Z,90.60
2018-05-23T03:28:14.286Z,90.70
2018-05-23T03:44:16.154Z,90.90
2018-05-23T03:49:39.578Z,90.50
2018-05-23T03:52:14.029Z,90.80
2018-05-23T04:22:46.764Z,90.50
2018-05-23T04:25:14.079Z,90.50
2018-05-23T04:27:44.733Z,90.50
2018-05-23T04:38:47.374Z,91.10
2018-05-23T04:44:14.839Z,91.00
2018-05-23T04:49:47.397Z,90.60
2018-05-23T04:52:17.693Z,90.70
2018-05-23T04:54:45.056Z,90.70
2018-05-23T05:15:06.638Z,86.20
2018-05-23T05:17:41.167Z,85.70
2018-05-23T05:20:18.575Z,83.90
2018-05-23T05:22:46.553Z,83.70
2018-05-23T05:25:14.016Z,82.00
2018-05-23T05:27:45.108Z,81.40
2018-05-23T05:33:13.984Z,80.60
2018-05-23T05:38:45.355Z,80.00
2018-05-23T05:41:16.682Z,78.70
2018-05-23T05:43:44.046Z,78.70
2018-05-23T06:18:45.300Z,72.00
2018-05-23T07:10:37.113Z,64.90
2018-05-23T07:15:44.335Z,64.70
2018-05-23T07:21:21.175Z,65.70
2018-05-23T08:25:14.246Z,59.40
2018-05-23T08:48:31.484Z,56.30
2018-05-23T08:50:58.724Z,55.30
2018-05-23T08:53:25.933Z,56.00
2018-05-23T08:55:53.040Z,56.10
2018-05-23T08:58:21.225Z,56.00
2018-05-23T09:00:48.261Z,56.50
2018-05-23T09:03:15.498Z,56.40
2018-05-23T09:05:42.610Z,55.30
2018-05-23T09:08:09.789Z,54.20
2018-05-23T09:13:33.493Z,53.10
2018-05-23T09:16:06.891Z,53.10
2018-05-23T09:18:33.940Z,52.40
2018-05-23T09:21:01.778Z,52.70
2018-05-23T09:23:28.881Z,52.60
2018-05-23T09:25:56.741Z,52.80
2018-05-23T09:28:23.792Z,52.70
2018-05-23T09:30:50.884Z,52.60
2018-05-23T09:33:18.406Z,51.80
2018-05-23T09:35:45.613Z,52.00
2018-05-23T09:38:12.760Z,51.90
2018-05-23T09:40:40.275Z,50.00
2018-05-23T09:43:16.293Z,49.50
2018-05-23T09:45:47.354Z,48.60
2018-05-23T09:48:14.585Z,48.50
2018-05-23T09:50:54.595Z,49.70
2018-05-23T09:53:21.644Z,49.10
2018-05-23T09:55:48.767Z,50.10
2018-05-23T09:58:16.670Z,49.30
2018-05-23T10:00:44.548Z,49.30
2018-05-23T10:03:17.430Z,49.10
2018-05-23T10:05:44.567Z,48.90
2018-05-23T10:08:12.197Z,47.90
2018-05-23T10:10:39.614Z,47.50
2018-05-23T10:13:13.362Z,45.30
2018-05-23T10:15:40.620Z,40.80
2018-05-23T10:18:07.734Z,41.50
2018-05-23T10:20:35.148Z,42.80
2018-05-23T10:23:02.402Z,43.10
2018-05-23T10:25:32.027Z,40.10
2018-05-23T10:28:13.329Z,39.00
2018-05-23T10:33:30.852Z,39.20
2018-05-23T10:35:57.905Z,39.30
2018-05-23T10:38:25.340Z,38.60
2018-05-23T10:48:59.483Z,41.60
2018-05-23T10:51:26.549Z,42.40
2018-05-23T10:53:53.688Z,40.70
2018-05-23T10:56:38.040Z,41.90
2018-05-23T10:59:07.682Z,41.80
2018-05-23T11:01:38.504Z,40.80
2018-05-23T11:04:06.468Z,40.20
2018-05-23T11:06:36.768Z,40.10
2018-05-23T11:09:08.519Z,40.40
2018-05-23T11:11:35.773Z,40.50
2018-05-23T11:19:54.738Z,38.50
2018-05-23T11:22:22.599Z,39.60
2018-05-23T11:24:50.419Z,36.30
2018-05-23T11:27:17.840Z,36.30
2018-05-23T11:29:48.305Z,37.70
2018-05-23T11:32:15.331Z,37.10
2018-05-23T11:34:45.898Z,38.00
2018-05-23T11:37:13.095Z,37.30
2018-05-23T11:39:48.795Z,37.60
2018-05-23T11:42:15.848Z,36.90
2018-05-23T11:44:42.952Z,38.30
2018-05-23T11:47:10.034Z,40.30
2018-05-23T11:49:37.099Z,40.50
2018-05-23T11:52:04.139Z,41.00
2018-05-23T11:54:31.371Z,42.00
2018-05-23T11:56:59.451Z,42.30
2018-05-23T11:59:27.398Z,43.70
2018-05-23T12:02:05.438Z,43.70
2018-05-23T12:04:32.579Z,42.10
2018-05-23T12:07:03.965Z,43.00
2018-05-23T12:09:34.681Z,43.80
2018-05-23T12:17:39.261Z,44.60
2018-05-23T12:20:06.331Z,45.90
2018-05-23T12:25:46.519Z,46.20
2018-05-23T12:28:16.662Z,47.50
2018-05-23T12:33:47.682Z,46.60
2018-05-23T12:36:16.931Z,48.40
2018-05-23T12:41:34.463Z,46.50
2018-05-23T12:44:01.562Z,47.30
2018-05-23T12:49:39.909Z,47.20
2018-05-23T12:52:11.607Z,47.60
2018-05-23T12:54:38.782Z,46.00
2018-05-23T12:57:05.951Z,46.80
2018-05-23T12:59:33.025Z,45.90
2018-05-23T13:02:18.588Z,46.80
2018-05-23T13:07:32.889Z,47.10
2018-05-23T13:10:00.039Z,47.10
2018-05-23T13:12:27.150Z,46.40
2018-05-23T13:14:54.237Z,46.20
2018-05-23T13:17:21.427Z,46.10
2018-05-23T13:19:48.625Z,45.60
2018-05-23T13:22:25.366Z,46.20
2018-05-23T13:24:54.183Z,46.80
2018-05-23T13:27:21.280Z,46.90
2018-05-23T13:29:50.119Z,48.60
2018-05-23T13:32:24.495Z,48.90
2018-05-23T13:34:54.015Z,48.90
2018-05-23T13:37:24.980Z,49.90
2018-05-23T13:39:52.926Z,49.60
2018-05-23T13:42:23.065Z,50.40
2018-05-23T13:44:54.343Z,50.80
2018-05-23T13:47:24.664Z,52.30
2018-05-23T13:49:56.230Z,52.10
2018-05-23T13:52:23.553Z,50.90
2018-05-23T13:54:55.420Z,52.00
2018-05-23T13:57:24.362Z,51.80
2018-05-23T13:59:53.147Z,51.90
2018-05-23T14:02:23.974Z,51.90
2018-05-23T14:04:53.107Z,52.00
2018-05-23T14:07:26.194Z,52.20
2018-05-23T14:09:53.769Z,52.20
2018-05-23T14:12:23.547Z,52.00
2018-05-23T14:14:53.956Z,52.90
2018-05-23T14:17:23.007Z,53.10
2018-05-23T14:19:50.911Z,53.60
2018-05-23T14:22:18.926Z,53.70
2018-05-23T14:24:46.034Z,53.80
2018-05-23T14:27:13.141Z,54.40
2018-05-23T14:29:40.378Z,53.70
2018-05-23T14:32:07.485Z,53.80
2018-05-23T14:34:34.551Z,53.60
2018-05-23T14:37:01.769Z,54.80
2018-05-23T14:39:33.168Z,55.90
2018-05-23T14:42:01.096Z,57.40
2018-05-23T14:44:28.538Z,57.30
2018-05-23T14:46:55.629Z,58.10
2018-05-23T14:49:22.732Z,59.20
2018-05-23T14:51:50.893Z,62.80
2018-05-23T14:54:28.548Z,61.50
2018-05-23T14:56:57.686Z,62.60
2018-05-23T14:59:24.893Z,64.10
2018-05-23T15:01:57.287Z,67.30
2018-05-23T15:04:24.453Z,74.50
2018-05-23T15:06:51.488Z,69.90
2018-05-23T15:09:18.805Z,73.80
2018-05-23T15:11:45.679Z,73.50
2018-05-23T15:14:13.505Z,76.80
2018-05-23T15:16:40.587Z,76.70
2018-05-23T15:19:07.832Z,79.40
2018-05-23T15:21:36.991Z,81.20
2018-05-23T15:24:04.114Z,81.40
2018-05-23T15:26:31.968Z,82.50
2018-05-23T15:28:59.268Z,84.60
2018-05-23T15:31:30.968Z,83.90
2018-05-23T15:34:02.974Z,83.80
2018-05-23T15:36:31.353Z,86.70
2018-05-23T15:38:59.775Z,83.90
2018-05-23T15:41:26.973Z,83.80
2018-05-23T15:43:54.802Z,82.00
2018-05-23T15:46:22.111Z,81.90
2018-05-23T15:48:50.327Z,82.00
2018-05-23T15:51:17.511Z,81.20
2018-05-23T15:53:46.532Z,83.80
2018-05-23T15:56:13.602Z,83.20
2018-05-23T15:58:40.680Z,80.00
2018-05-23T16:01:11.379Z,81.30
2018-05-23T16:03:38.448Z,83.80
2018-05-23T16:06:05.592Z,82.90
2018-05-23T16:08:33.527Z,84.50
2018-05-23T16:11:00.787Z,83.70
2018-05-23T16:13:28.039Z,84.80
2018-05-23T16:15:55.710Z,82.50
2018-05-23T16:18:25.216Z,82.00
2018-05-23T16:20:52.784Z,83.70
2018-05-23T16:23:19.946Z,84.40
2018-05-23T16:25:46.980Z,83.00
2018-05-23T16:28:24.713Z,86.40
2018-05-23T16:30:51.892Z,86.10
2018-05-23T16:33:26.419Z,85.70
2018-05-23T16:35:53.912Z,85.30
2018-05-23T16:38:21.148Z,85.90
2018-05-23T16:40:48.460Z,85.30
2018-05-23T16:43:18.346Z,87.90
2018-05-23T16:45:46.348Z,86.30
2018-05-23T16:48:13.417Z,83.90
2018-05-23T16:50:40.486Z,84.70
2018-05-23T16:53:07.535Z,85.50
2018-05-23T16:55:34.571Z,86.10
2018-05-23T16:58:01.608Z,85.70
2018-05-23T17:00:31.907Z,86.30
2018-05-23T17:02:59.793Z,86.30
2018-05-23T17:05:27.631Z,86.30
2018-05-23T17:07:54.818Z,86.20
2018-05-23T17:10:22.898Z,87.10
2018-05-23T17:12:50.166Z,87.00
2018-05-23T17:15:17.229Z,85.10
2018-05-23T17:17:44.310Z,83.50
2018-05-23T17:20:11.731Z,83.00
2018-05-23T17:22:38.809Z,84.70
2018-05-23T17:25:05.913Z,83.90
2018-05-23T17:27:34.007Z,84.20
2018-05-23T17:30:01.151Z,84.10
2018-05-23T17:32:28.247Z,83.10
2018-05-23T17:34:55.388Z,85.70
2018-05-23T17:37:23.360Z,83.80
2018-05-23T17:39:51.524Z,84.80
2018-05-23T17:42:18.589Z,83.20
2018-05-23T17:44:45.690Z,83.30
2018-05-23T17:47:12.854Z,83.30
2018-05-23T17:49:39.874Z,82.30
2018-05-23T17:52:06.982Z,79.90
2018-05-23T17:54:54.270Z,79.20
2018-05-23T17:57:30.538Z,81.30
2018-05-23T17:59:58.711Z,82.00
2018-05-23T18:02:27.908Z,81.90
2018-05-23T18:04:56.030Z,81.70
2018-05-23T18:07:23.951Z,81.30
2018-05-23T18:09:51.627Z,81.20
2018-05-23T18:12:25.326Z,79.10
2018-05-23T18:14:55.870Z,80.50
2018-05-23T18:17:23.754Z,80.20
2018-05-23T18:19:50.792Z,80.10
2018-05-23T18:22:19.741Z,78.60
2018-05-23T18:24:53.301Z,78.40
2018-05-23T18:27:20.382Z,77.60
2018-05-23T18:29:48.255Z,76.90
2018-05-23T18:32:17.422Z,76.90
2018-05-23T18:34:45.497Z,76.60
2018-05-23T18:37:12.540Z,77.20
2018-05-23T18:39:39.614Z,77.20
2018-05-23T18:42:06.629Z,76.60
2018-05-23T18:47:22.634Z,76.50
2018-05-23T18:49:49.665Z,76.80
2018-05-23T18:52:17.218Z,77.30
2018-05-23T18:54:53.626Z,77.30
2018-05-23T18:57:23.989Z,77.20
2018-05-23T18:59:57.737Z,78.00
2018-05-23T19:02:26.871Z,77.30
2018-05-23T19:04:55.444Z,77.20
2018-05-23T19:07:22.600Z,78.50
2018-05-23T19:09:53.073Z,78.00
2018-05-23T19:12:20.138Z,78.70
2018-05-23T19:14:47.179Z,79.30
2018-05-23T19:17:14.275Z,79.40
2018-05-23T19:19:42.344Z,79.30
2018-05-23T19:22:09.317Z,79.40
2018-05-23T19:24:36.417Z,79.20
2018-05-23T19:27:15.783Z,79.00
2018-05-23T19:29:43.602Z,78.60
2018-05-23T19:32:11.494Z,78.60
2018-05-23T19:34:53.339Z,77.70
2018-05-23T19:37:20.738Z,78.40
2018-05-23T19:39:55.087Z,78.20
2018-05-23T19:42:32.378Z,78.30
2018-05-23T19:45:00.638Z,79.00
2018-05-23T19:47:30.797Z,79.10
2018-05-23T19:49:57.826Z,79.10
2018-05-23T19:52:24.856Z,79.30
2018-05-23T19:54:51.919Z,79.60
2018-05-23T19:57:18.962Z,78.80
2018-05-23T20:00:00.063Z,79.60
2018-05-23T20:02:28.053Z,79.40
2018-05-23T20:04:56.020Z,79.80
2018-05-23T20:07:23.081Z,79.90
2018-05-23T20:09:50.132Z,79.90
2018-05-23T20:12:17.228Z,79.80
2018-05-23T20:14:45.098Z,80.50
2018-05-23T20:17:12.166Z,80.40
2018-05-23T20:19:41.206Z,80.80
2018-05-23T20:22:16.309Z,80.50
2018-05-23T20:24:49.952Z,80.20
2018-05-23T20:27:26.291Z,81.20
2018-05-23T20:29:53.826Z,81.10
2018-05-23T20:32:23.209Z,81.60
2018-05-23T20:34:53.904Z,81.60
2018-05-23T20:37:21.008Z,81.60
2018-05-23T20:39:48.183Z,81.60
2018-05-23T20:42:16.012Z,82.10
2018-05-23T20:44:43.063Z,82.10
2018-05-23T20:47:10.393Z,82.60
2018-05-23T20:52:30.263Z,82.70
2018-05-23T20:54:57.303Z,82.70
2018-05-23T20:57:31.262Z,82.60
2018-05-23T21:00:00.307Z,82.50
2018-05-23T21:02:27.430Z,82.50
2018-05-23T21:04:55.441Z,82.10
2018-05-23T21:07:23.247Z,82.50
2018-05-23T21:09:50.309Z,82.50
2018-05-23T21:12:29.917Z,82.90
2018-05-23T21:14:58.766Z,82.70
2018-05-23T21:17:25.759Z,82.60
2018-05-23T21:19:52.799Z,82.90
2018-05-23T21:22:19.829Z,82.70
2018-05-23T21:24:50.639Z,82.90
2018-05-23T21:27:17.730Z,82.80
2018-05-23T21:29:58.246Z,82.60
2018-05-23T21:32:25.305Z,82.70
2018-05-23T21:34:52.343Z,83.00
2018-05-23T21:37:23.126Z,82.80
2018-05-23T21:39:50.171Z,83.50
2018-05-23T21:42:17.301Z,83.30
2018-05-23T21:44:44.632Z,83.00
2018-05-23T21:47:12.910Z,83.40
2018-05-23T21:49:40.059Z,83.00
2018-05-23T21:52:08.062Z,83.60
2018-05-23T21:54:41.429Z,83.20
2018-05-23T21:57:11.819Z,83.40
2018-05-23T21:59:39.695Z,84.10
2018-05-23T22:02:08.516Z,83.50
2018-05-23T22:04:36.314Z,83.60
2018-05-23T22:07:05.367Z,83.50
2018-05-23T22:09:52.110Z,84.30
2018-05-23T22:12:24.959Z,84.10
2018-05-23T22:14:52.100Z,84.70
2018-05-23T22:17:19.257Z,83.80
2018-05-23T22:19:46.427Z,84.60
2018-05-23T22:22:13.548Z,85.20
2018-05-23T22:24:40.660Z,85.50
2018-05-23T22:27:22.230Z,85.60
2018-05-23T22:29:49.325Z,85.60
2018-05-23T22:32:16.556Z,86.20
2018-05-23T22:34:43.604Z,85.80
2018-05-23T22:37:10.643Z,86.20
2018-05-23T22:39:38.440Z,86.10
2018-05-23T22:42:05.475Z,86.00
2018-05-23T22:44:32.675Z,85.60
2018-05-23T22:46:59.792Z,86.70
2018-05-23T22:49:26.834Z,86.30
2018-05-23T22:51:54.250Z,86.10
2018-05-23T22:54:21.602Z,85.60
2018-05-23T22:56:48.934Z,85.70
2018-05-23T22:59:16.029Z,85.70
2018-05-23T23:01:43.916Z,86.00
2018-05-23T23:04:10.955Z,86.00
2018-05-23T23:06:38.355Z,85.90
2018-05-23T23:09:05.399Z,85.80
2018-05-23T23:11:33.514Z,85.70
2018-05-23T23:14:00.621Z,85.60
2018-05-23T23:16:27.742Z,85.40
2018-05-23T23:18:54.966Z,86.20
2018-05-23T23:21:22.067Z,86.20
2018-05-23T23:23:49.169Z,86.60
2018-05-23T23:26:16.991Z,86.30
2018-05-23T23:28:44.032Z,86.30
2018-05-23T23:31:11.087Z,86.90
2018-05-23T23:33:38.144Z,86.90
2018-05-23T23:36:05.199Z,87.40
2018-05-23T23:38:33.317Z,86.60
2018-05-23T23:41:01.203Z,86.30
2018-05-23T23:43:28.510Z,86.20
2018-05-23T23:45:56.562Z,86.50
2018-05-23T23:48:23.615Z,86.40
2018-05-23T23:50:50.891Z,86.10
2018-05-23T23:53:17.762Z,86.00
2018-05-23T23:55:45.331Z,85.90
2018-05-23T23:58:12.679Z,85.70
